Airfield :
LOGIN :

Register | Disclaimer

   EN    FR    IT 

 










Legend :    VFR   Marginal VFR   IFR   Intensive IFR   Very Intensive IFR
Visi :
Ceiling :
>= 8 km
>= 3000ft
5 to 8 km
1000 to 3000 ft
1500m to 5 km
500 to 1000 ft
800 to 1500m
200 to 500 ft
< 800m
< 200 ft
Symbols :   Thunderstorms  Fog  Heavy snow  Heavy precipitations  Wind > 20 kt
SIGMETs :     Misc.  Thunderstorms  Icing  Turbulence  Mountain Waves  Volcanic Ashes






- Airport Elevation : 390 ft
- IATA code : NQY


EGHQ - Newquay

CURRENT METAR :
  • 170920Z AUTO 33007KT 9999 BKN022/// 07/03 Q1028

EXPIRED METARs :
  • 170850Z AUTO 34006KT 9999 SCT022/// 06/03 Q1028
  • 170820Z AUTO 34007KT 9999 FEW023/// 06/02 Q1027
  • 170750Z AUTO 34009KT 9999 FEW032/// 06/02 Q1027
  • 170720Z AUTO 33010KT 9999 SCT024/// 07/03 Q1027
  • 170650Z AUTO 32015KT 9999 SCT024/// 07/03 Q1026

TAF TAF EGHQ
Valid from the 17 at 09:00 until the 17 at 18:00 UTC


170803Z 1709/1718 32008KT 9999 SCT025



MET'MAP, your aeronautical weather chart ! - Copyright ORBIFLY December 2007 - Disclaimer

ORBIFLY MET'MAP TEAM :

Programming & Development : Alexandra Zaïnal
Concept & original design : Baudouin d'Aumeries
Assistance for programming : Marc-Olivier Méhu
Technical & hardware support : Manuel Goepfert

Contact : metmap@orbifly.com




SOURCES & CREDITS :

   NOAA